Aultman, Pennsylvania
Current Conditions -  °F | °C
As of 6:55 AM on Tuesday 21 Oct 2014 (Local Time) from KIDI Reporting Station
Haze Haze  
Wind Chill:   Ceiling: 300
Heat Index:   Visibility: 0.75mi
Dew Point:   Wind: 6mph
Humidity: 100%   Direction: 260°W
Pressure: 29.88"   Gusts: NA
Location:  40.56°N, 79.26°W
Report Text: KIDI 211055Z AUTO 26005KT 3/4SM BR OVC003 09/09 A2988 RMK A01
Loading
Personal Weather Stations






























Interactive Weather Map
Tropical Storm Tracking
New forecast layout! Learn more

10-Day Weather Forecast

Advertisements
Track Severe Weather on mobile